Time;durP1;ratioP1;P1;durP2;ratioP2;P2;SDS_P1;SDS_P2;PMS_P1;PMS_P2;Temp;Humidity;BMP_temperature;BMP_pressure;BME280_temperature;BME280_humidity;BME280_pressure;Samples;Min_cycle;Max_cycle;Signal;HPM_P1;HPM_P2
2022/11/13 17:18:28;;;;;;;69.93;34.50;;;;;;;;;;5215306;23;20071;-59
2022/11/13 17:20:54;;;;;;;65.97;32.35;;;;;;;;;;4940331;29;20036;-60
2022/11/13 17:23:20;;;;;;;57.05;28.35;;;;;;;;;;4933440;29;20034;-58
2022/11/13 17:25:46;;;;;;;48.33;25.40;;;;;;;;;;4954565;28;20035;-66
2022/11/13 17:28:12;;;;;;;55.60;25.38;;;;;;;;;;4960444;28;20126;-58
2022/11/13 17:30:38;;;;;;;49.20;25.35;;;;;;;;;;4962937;28;20034;-73
2022/11/13 17:33:04;;;;;;;50.78;25.90;;;;;;;;;;4971782;28;20037;-69
2022/11/13 17:35:30;;;;;;;49.95;25.35;;;;;;;;;;4971801;28;20057;-73
2022/11/13 17:37:56;;;;;;;51.78;26.52;;;;;;;;;;4971747;28;20038;-67
2022/11/13 17:40:22;;;;;;;46.88;25.35;;;;;;;;;;4962252;28;20043;-73
2022/11/13 17:42:49;;;;;;;48.10;25.92;;;;;;;;;;4964780;28;20414;-75
2022/11/13 17:45:15;;;;;;;50.33;27.38;;;;;;;;;;4964607;28;20079;-76
2022/11/13 17:47:42;;;;;;;53.13;27.30;;;;;;;;;;4962961;28;20128;-69
2022/11/13 17:50:08;;;;;;;50.55;26.10;;;;;;;;;;4964717;28;20043;-73
2022/11/13 17:52:34;;;;;;;59.58;28.88;;;;;;;;;;4965929;28;20482;-73
2022/11/13 17:55:04;;;;;;;61.97;33.45;;;;;;;;;;4971845;28;20438;-74
2022/11/13 17:57:32;;;;;;;71.40;35.63;;;;;;;;;;4971641;28;20026;-73
2022/11/13 17:59:58;;;;;;;61.30;32.10;;;;;;;;;;4963991;28;20039;-72
2022/11/13 18:02:24;;;;;;;54.00;29.05;;;;;;;;;;4968728;28;20028;-72
2022/11/13 18:04:52;;;;;;;55.92;29.52;;;;;;;;;;4960984;28;20148;-73
2022/11/13 18:07:18;;;;;;;56.15;29.88;;;;;;;;;;4969036;28;20550;-72
2022/11/13 18:09:44;;;;;;;52.70;29.15;;;;;;;;;;4974855;28;20038;-72
2022/11/13 18:12:10;;;;;;;59.22;32.22;;;;;;;;;;4974923;28;20058;-62
2022/11/13 18:14:36;;;;;;;65.10;33.80;;;;;;;;;;4975107;28;20063;-71
2022/11/13 18:17:02;;;;;;;62.33;32.65;;;;;;;;;;4974983;28;20066;-79
2022/11/13 18:19:29;;;;;;;70.05;35.28;;;;;;;;;;4974154;28;20515;-68
2022/11/13 18:21:55;;;;;;;66.50;34.65;;;;;;;;;;4974869;28;20027;-60
2022/11/13 18:24:21;;;;;;;61.65;33.25;;;;;;;;;;4975024;28;20018;-68
2022/11/13 18:26:47;;;;;;;68.32;33.38;;;;;;;;;;4975014;28;20034;-76
2022/11/13 18:29:13;;;;;;;65.38;32.72;;;;;;;;;;4973426;28;20053;-70
2022/11/13 18:31:39;;;;;;;60.55;31.45;;;;;;;;;;4955649;28;20038;-70
2022/11/13 18:34:08;;;;;;;58.63;30.67;;;;;;;;;;4954747;29;20035;-72
2022/11/13 18:36:34;;;;;;;61.42;31.38;;;;;;;;;;4954344;28;20039;-75
2022/11/13 18:39:01;;;;;;;60.42;30.85;;;;;;;;;;4954606;29;20039;-62
2022/11/13 18:41:28;;;;;;;61.80;31.00;;;;;;;;;;4953671;28;20511;-76
2022/11/13 18:43:54;;;;;;;63.72;31.13;;;;;;;;;;4954197;29;20031;-75
2022/11/13 18:46:21;;;;;;;64.40;33.33;;;;;;;;;;4954101;29;20031;-77
2022/11/13 18:48:47;;;;;;;68.20;33.85;;;;;;;;;;4954075;29;20082;-67
2022/11/13 18:51:14;;;;;;;64.95;32.78;;;;;;;;;;4952987;28;20110;-76
2022/11/13 18:53:42;;;;;;;67.90;34.88;;;;;;;;;;4953931;29;20031;-66
2022/11/13 18:56:11;;;;;;;62.38;34.58;;;;;;;;;;4953996;28;20026;-79
2022/11/13 18:58:37;;;;;;;67.65;33.67;;;;;;;;;;4953630;29;20095;-80
2022/11/13 19:01:27;;;;;;;65.68;33.58;;;;;;;;;;4953628;29;20372;-77
2022/11/13 19:03:54;;;;;;;68.50;33.92;;;;;;;;;;4875935;29;20091;-76
2022/11/13 19:06:21;;;;;;;67.15;35.45;;;;;;;;;;4875373;29;20044;-79
2022/11/13 19:08:47;;;;;;;68.03;36.30;;;;;;;;;;4875280;29;20056;-67
2022/11/13 19:11:15;;;;;;;67.20;36.40;;;;;;;;;;4875969;29;20146;-79
2022/11/13 19:13:42;;;;;;;67.45;35.15;;;;;;;;;;4875967;29;20111;-82
2022/11/13 19:16:12;;;;;;;67.07;32.95;;;;;;;;;;4875657;29;20048;-81
2022/11/13 19:18:40;;;;;;;62.58;32.35;;;;;;;;;;4875336;29;20061;-81
2022/11/13 19:21:06;;;;;;;66.03;33.08;;;;;;;;;;4867257;29;20041;-72
2022/11/13 19:23:32;;;;;;;68.20;34.58;;;;;;;;;;4875534;29;20044;-71
2022/11/13 19:25:58;;;;;;;66.28;32.80;;;;;;;;;;4875706;29;20032;-76
2022/11/13 19:28:24;;;;;;;67.68;33.05;;;;;;;;;;4874564;29;20068;-78
2022/11/13 19:30:53;;;;;;;63.95;33.35;;;;;;;;;;4874838;29;20120;-77
2022/11/13 19:33:19;;;;;;;66.88;33.80;;;;;;;;;;4874917;29;20079;-71
2022/11/13 19:35:45;;;;;;;67.15;33.65;;;;;;;;;;4875112;29;20044;-78
2022/11/13 19:38:11;;;;;;;70.65;34.95;;;;;;;;;;4875269;29;20033;-79
2022/11/13 19:40:38;;;;;;;63.70;34.85;;;;;;;;;;4905766;28;20034;-79
2022/11/13 19:43:04;;;;;;;70.10;34.53;;;;;;;;;;4972551;28;20478;-74
2022/11/13 19:45:30;;;;;;;67.10;34.30;;;;;;;;;;4972659;28;20033;-62
2022/11/13 19:47:56;;;;;;;70.47;35.00;;;;;;;;;;4972215;28;20035;-79
2022/11/13 19:50:22;;;;;;;68.82;35.00;;;;;;;;;;4972332;28;20031;-77
2022/11/13 19:52:48;;;;;;;65.43;34.55;;;;;;;;;;4955587;28;20027;-77
2022/11/13 19:55:15;;;;;;;63.03;33.95;;;;;;;;;;4953064;29;20038;-78
2022/11/13 19:57:41;;;;;;;64.05;33.78;;;;;;;;;;4952922;29;20028;-78
2022/11/13 20:00:07;;;;;;;63.05;32.47;;;;;;;;;;4952941;28;20041;-77
2022/11/13 20:02:34;;;;;;;65.22;32.35;;;;;;;;;;4951354;28;20035;-75
2022/11/13 20:05:00;;;;;;;65.13;32.17;;;;;;;;;;4960639;28;20062;-79
2022/11/13 20:07:26;;;;;;;64.70;32.97;;;;;;;;;;4956127;28;20035;-64
2022/11/13 20:09:52;;;;;;;62.88;31.75;;;;;;;;;;4953275;28;20078;-60
2022/11/13 20:12:18;;;;;;;59.95;31.75;;;;;;;;;;4954034;29;20027;-58
2022/11/13 20:14:44;;;;;;;60.58;31.77;;;;;;;;;;4953506;29;20046;-75
2022/11/13 20:17:10;;;;;;;60.97;31.15;;;;;;;;;;4953997;29;20078;-62
2022/11/13 20:19:36;;;;;;;63.75;31.27;;;;;;;;;;4953726;28;20051;-60
2022/11/13 20:22:02;;;;;;;57.22;29.77;;;;;;;;;;4953620;29;20035;-76
2022/11/13 20:24:28;;;;;;;59.38;29.92;;;;;;;;;;4953224;29;20090;-77
2022/11/13 20:26:54;;;;;;;54.03;27.95;;;;;;;;;;4953439;29;20027;-68
2022/11/13 20:29:20;;;;;;;57.83;29.13;;;;;;;;;;4953274;29;20043;-68
2022/11/13 20:31:46;;;;;;;55.53;28.52;;;;;;;;;;4957649;28;20042;-64
2022/11/13 20:34:13;;;;;;;52.13;27.38;;;;;;;;;;4961712;28;20375;-69
2022/11/13 20:36:39;;;;;;;56.83;27.80;;;;;;;;;;4959818;28;20040;-77
2022/11/13 20:39:05;;;;;;;50.58;26.27;;;;;;;;;;4961661;28;20054;-79
2022/11/13 20:41:31;;;;;;;51.90;27.80;;;;;;;;;;4961501;28;20030;-80
2022/11/13 20:44:00;;;;;;;52.15;26.88;;;;;;;;;;4960202;28;20039;-69
2022/11/13 20:46:27;;;;;;;50.03;27.55;;;;;;;;;;4958545;28;20065;-69
2022/11/13 20:48:53;;;;;;;48.15;26.17;;;;;;;;;;4960787;28;20502;-77
2022/11/13 20:51:20;;;;;;;49.75;27.52;;;;;;;;;;4959371;28;20050;-79
2022/11/13 20:53:46;;;;;;;52.70;26.13;;;;;;;;;;4942744;28;20042;-69
2022/11/13 20:56:13;;;;;;;45.67;25.30;;;;;;;;;;4961491;28;20456;-62
2022/11/13 20:58:39;;;;;;;46.33;25.23;;;;;;;;;;4961118;28;20383;-74
2022/11/13 21:01:06;;;;;;;51.05;26.67;;;;;;;;;;4959919;28;20027;-78
2022/11/13 21:03:33;;;;;;;47.03;24.83;;;;;;;;;;4961125;28;20023;-61
2022/11/13 21:05:59;;;;;;;45.55;24.52;;;;;;;;;;4961004;28;20046;-78
2022/11/13 21:08:25;;;;;;;45.80;25.10;;;;;;;;;;4959254;28;20485;-74
2022/11/13 21:10:51;;;;;;;45.50;23.85;;;;;;;;;;4957023;28;20055;-62
2022/11/13 21:13:17;;;;;;;40.70;22.98;;;;;;;;;;4952535;29;20365;-59
2022/11/13 21:15:43;;;;;;;46.25;24.27;;;;;;;;;;4961735;28;20074;-74
2022/11/13 21:18:09;;;;;;;42.33;23.77;;;;;;;;;;4959602;28;20387;-59
2022/11/13 21:20:36;;;;;;;44.80;22.98;;;;;;;;;;4959453;28;20054;-68
2022/11/13 21:23:02;;;;;;;40.58;22.98;;;;;;;;;;4961666;28;20027;-58
2022/11/13 21:25:29;;;;;;;38.75;22.27;;;;;;;;;;4960345;28;20102;-69
2022/11/13 21:27:55;;;;;;;43.05;23.02;;;;;;;;;;4959998;28;20023;-72
2022/11/13 21:30:22;;;;;;;42.90;23.55;;;;;;;;;;4944220;28;20383;-65
2022/11/13 21:32:48;;;;;;;44.83;23.38;;;;;;;;;;4959879;28;20027;-60
2022/11/13 21:35:14;;;;;;;43.97;23.90;;;;;;;;;;4960522;28;20026;-60
2022/11/13 21:37:40;;;;;;;47.90;24.60;;;;;;;;;;4960913;28;20177;-60
2022/11/13 21:40:07;;;;;;;44.85;24.40;;;;;;;;;;4959145;28;20019;-59
2022/11/13 21:42:33;;;;;;;39.92;23.23;;;;;;;;;;4954450;28;20023;-59
2022/11/13 21:44:59;;;;;;;43.42;23.35;;;;;;;;;;4954783;28;20023;-59
2022/11/13 21:47:25;;;;;;;44.08;23.27;;;;;;;;;;4954630;28;20505;-73
2022/11/13 21:49:51;;;;;;;40.10;22.95;;;;;;;;;;4954740;28;20483;-59
2022/11/13 21:52:17;;;;;;;40.42;22.90;;;;;;;;;;4960098;28;20023;-59
2022/11/13 21:54:43;;;;;;;43.30;23.55;;;;;;;;;;4961471;28;20023;-68
2022/11/13 21:57:09;;;;;;;42.78;22.30;;;;;;;;;;4960181;28;20019;-71
2022/11/13 21:59:35;;;;;;;41.25;21.98;;;;;;;;;;4960234;28;20029;-60
2022/11/13 22:02:01;;;;;;;40.45;23.00;;;;;;;;;;4961329;28;20022;-70
2022/11/13 22:04:27;;;;;;;40.00;22.30;;;;;;;;;;4959709;28;20023;-68
2022/11/13 22:06:53;;;;;;;38.55;22.67;;;;;;;;;;4960754;28;20031;-59
2022/11/13 22:09:20;;;;;;;41.25;22.83;;;;;;;;;;4958748;28;20491;-67
2022/11/13 22:11:46;;;;;;;40.42;22.23;;;;;;;;;;4957329;28;20038;-61
2022/11/13 22:14:13;;;;;;;38.75;21.65;;;;;;;;;;4960671;28;20078;-59
2022/11/13 22:16:40;;;;;;;40.38;21.63;;;;;;;;;;4961263;28;20027;-60
2022/11/13 22:19:09;;;;;;;37.25;21.45;;;;;;;;;;4957005;28;20044;-59
2022/11/13 22:21:35;;;;;;;41.90;22.60;;;;;;;;;;4960464;28;20015;-59
2022/11/13 22:24:02;;;;;;;39.35;21.63;;;;;;;;;;4960729;28;20471;-71
2022/11/13 22:26:28;;;;;;;37.38;21.33;;;;;;;;;;4968228;28;20542;-59
2022/11/13 22:28:55;;;;;;;37.95;21.23;;;;;;;;;;4974545;28;20039;-72
2022/11/13 22:31:26;;;;;;;38.42;20.73;;;;;;;;;;4974667;28;20463;-63
2022/11/13 22:33:53;;;;;;;38.13;21.33;;;;;;;;;;4974465;28;20538;-59
2022/11/13 22:36:20;;;;;;;41.75;22.50;;;;;;;;;;4974865;28;20110;-70
2022/11/13 22:38:46;;;;;;;44.78;22.95;;;;;;;;;;4959429;28;20035;-69
2022/11/13 22:41:14;;;;;;;43.95;23.58;;;;;;;;;;4955156;29;20062;-72
2022/11/13 22:43:41;;;;;;;42.50;22.98;;;;;;;;;;4955147;29;20023;-68
2022/11/13 22:46:08;;;;;;;41.05;22.75;;;;;;;;;;4955290;29;20031;-67
2022/11/13 22:48:35;;;;;;;43.83;24.38;;;;;;;;;;4955309;29;20164;-69
2022/11/13 22:51:02;;;;;;;44.53;22.85;;;;;;;;;;4955076;29;20047;-67
2022/11/13 22:53:28;;;;;;;40.58;21.98;;;;;;;;;;4954883;29;20040;-71
2022/11/13 22:55:59;;;;;;;38.03;21.15;;;;;;;;;;4955095;29;20031;-60
2022/11/13 22:58:27;;;;;;;35.70;20.73;;;;;;;;;;4955140;29;20027;-59
2022/11/13 23:00:53;;;;;;;37.10;20.60;;;;;;;;;;4955232;29;20039;-64
2022/11/13 23:03:19;;;;;;;38.25;22.27;;;;;;;;;;4954956;29;20073;-71
2022/11/13 23:05:45;;;;;;;38.35;21.42;;;;;;;;;;4954951;29;20034;-63
2022/11/13 23:08:11;;;;;;;41.00;22.20;;;;;;;;;;4954400;28;20027;-70
2022/11/13 23:10:37;;;;;;;37.00;20.98;;;;;;;;;;4954249;28;20027;-62
2022/11/13 23:13:03;;;;;;;42.75;22.35;;;;;;;;;;4954410;29;20035;-68
2022/11/13 23:15:29;;;;;;;38.97;21.60;;;;;;;;;;4954780;29;20023;-65
2022/11/13 23:17:55;;;;;;;38.63;21.50;;;;;;;;;;4953928;28;20035;-70
2022/11/13 23:20:21;;;;;;;40.20;21.75;;;;;;;;;;4954248;29;20568;-62
